createdAt,value
2019-02-24T00:01:21.181Z,1.40
2019-02-24T00:03:50.460Z,1.40
2019-02-24T00:06:19.643Z,1.30
2019-02-24T00:08:49.099Z,1.30
2019-02-24T00:11:18.069Z,1.30
2019-02-24T00:13:47.088Z,1.40
2019-02-24T00:16:16.045Z,1.40
2019-02-24T00:18:45.057Z,1.30
2019-02-24T00:21:14.037Z,1.20
2019-02-24T00:23:43.092Z,1.30
2019-02-24T00:26:12.045Z,1.40
2019-02-24T00:28:41.029Z,1.40
2019-02-24T00:31:10.059Z,1.30
2019-02-24T00:33:39.233Z,1.30
2019-02-24T00:36:08.227Z,1.30
2019-02-24T00:38:37.375Z,1.20
2019-02-24T00:41:06.497Z,1.20
2019-02-24T00:43:35.666Z,1.20
2019-02-24T00:46:04.665Z,1.20
2019-02-24T00:48:33.740Z,1.20
2019-02-24T00:51:02.757Z,1.30
2019-02-24T00:53:31.687Z,1.40
2019-02-24T00:56:00.617Z,1.50
2019-02-24T00:58:29.585Z,1.50
2019-02-24T01:00:58.603Z,1.40
2019-02-24T01:03:27.577Z,1.40
2019-02-24T01:05:56.521Z,1.40
2019-02-24T01:08:25.431Z,1.30
2019-02-24T01:10:54.441Z,1.30
2019-02-24T01:13:23.375Z,1.20
2019-02-24T01:15:52.335Z,1.20
2019-02-24T01:18:21.241Z,1.20
2019-02-24T01:20:50.213Z,1.10
2019-02-24T01:23:19.253Z,1.10
2019-02-24T01:25:54.741Z,1.00
2019-02-24T01:28:25.528Z,1.00
2019-02-24T01:30:52.749Z,1.00
2019-02-24T01:33:21.666Z,1.00
2019-02-24T01:35:50.663Z,1.10
2019-02-24T01:38:19.696Z,1.10
2019-02-24T01:40:48.647Z,1.10
2019-02-24T01:43:17.570Z,1.20
2019-02-24T01:45:46.568Z,1.10
2019-02-24T01:48:15.555Z,1.10
2019-02-24T01:50:44.603Z,1.00
2019-02-24T01:53:13.548Z,1.00
2019-02-24T01:55:42.557Z,0.90
2019-02-24T01:58:11.547Z,0.80
2019-02-24T02:00:40.862Z,0.80
2019-02-24T02:03:09.821Z,0.70
2019-02-24T02:05:38.781Z,0.60
2019-02-24T02:08:07.714Z,0.40
2019-02-24T02:10:36.764Z,0.40
2019-02-24T02:13:05.717Z,0.50
2019-02-24T02:15:34.703Z,0.50
2019-02-24T02:18:03.687Z,0.60
2019-02-24T02:20:32.689Z,0.70
2019-02-24T02:23:01.672Z,0.80
2019-02-24T02:25:30.625Z,0.80
2019-02-24T02:28:00.139Z,0.70
2019-02-24T02:30:29.345Z,0.70
2019-02-24T02:32:58.274Z,0.80
2019-02-24T02:35:27.252Z,0.70
2019-02-24T02:37:56.393Z,0.60
2019-02-24T02:40:25.435Z,0.50
2019-02-24T02:42:54.762Z,0.50
2019-02-24T02:45:23.782Z,0.40
2019-02-24T02:47:52.855Z,0.40
2019-02-24T02:50:21.837Z,0.40
2019-02-24T02:52:50.831Z,0.40
2019-02-24T02:55:20.844Z,0.40
2019-02-24T02:57:49.831Z,0.40
2019-02-24T03:00:27.571Z,0.50
2019-02-24T03:02:56.637Z,0.40
2019-02-24T03:05:25.813Z,0.40
2019-02-24T03:08:00.208Z,0.30
2019-02-24T03:10:29.253Z,0.40
2019-02-24T03:12:58.315Z,0.40
2019-02-24T03:15:27.319Z,0.50
2019-02-24T03:17:56.363Z,0.50
2019-02-24T03:20:25.357Z,0.50
2019-02-24T03:22:54.296Z,0.50
2019-02-24T03:25:23.326Z,0.50
2019-02-24T03:27:52.572Z,0.60
2019-02-24T03:30:21.699Z,0.60
2019-02-24T03:32:50.857Z,0.60
2019-02-24T03:35:20.099Z,0.60
2019-02-24T03:37:49.275Z,0.60
2019-02-24T03:40:18.295Z,0.60
2019-02-24T03:42:47.230Z,0.60
2019-02-24T03:45:16.162Z,0.70
2019-02-24T03:47:45.153Z,0.70
2019-02-24T03:50:14.184Z,0.70
2019-02-24T03:52:43.209Z,0.70
2019-02-24T03:55:12.174Z,0.70
2019-02-24T03:57:41.137Z,0.70
2019-02-24T04:00:10.147Z,0.70
2019-02-24T04:02:39.167Z,0.70
2019-02-24T04:05:08.131Z,0.60
2019-02-24T04:07:37.105Z,0.60
2019-02-24T04:10:06.612Z,0.70
2019-02-24T04:12:35.567Z,0.80
2019-02-24T04:15:04.981Z,0.70
2019-02-24T04:17:33.968Z,0.80
2019-02-24T04:20:02.930Z,0.80
2019-02-24T04:22:31.896Z,0.80
2019-02-24T04:25:00.966Z,0.80
2019-02-24T04:27:29.965Z,0.80
2019-02-24T04:29:58.999Z,0.70
2019-02-24T04:32:28.050Z,0.60
2019-02-24T04:34:56.991Z,0.70
2019-02-24T04:37:25.965Z,0.70
2019-02-24T04:39:54.903Z,0.70
2019-02-24T04:42:23.894Z,0.70
2019-02-24T04:44:52.921Z,0.60
2019-02-24T04:47:21.915Z,0.50
2019-02-24T04:49:51.150Z,0.40
2019-02-24T04:52:20.140Z,0.50
2019-02-24T04:54:49.113Z,0.50
2019-02-24T04:57:18.154Z,0.50
2019-02-24T04:59:47.287Z,0.70
2019-02-24T05:02:16.381Z,0.70
2019-02-24T05:04:45.285Z,0.70
2019-02-24T05:07:14.402Z,0.60
2019-02-24T05:09:43.403Z,0.60
2019-02-24T05:12:12.404Z,0.50
2019-02-24T05:14:41.385Z,0.30
2019-02-24T05:17:10.404Z,0.30
2019-02-24T05:19:39.310Z,0.20
2019-02-24T05:22:08.308Z,0.20
2019-02-24T05:24:37.198Z,0.10
2019-02-24T05:27:06.168Z,0.10
2019-02-24T05:29:44.816Z,0.10
2019-02-24T05:32:04.060Z,0.10
2019-02-24T05:34:33.073Z,0.20
2019-02-24T05:37:02.013Z,0.20
2019-02-24T05:39:31.001Z,0.20
2019-02-24T05:42:06.866Z,0.20
2019-02-24T05:44:35.866Z,0.20
2019-02-24T05:47:04.833Z,0.20
2019-02-24T05:49:33.771Z,0.10
2019-02-24T05:52:02.737Z,0.00
2019-02-24T05:54:31.664Z,0.00
2019-02-24T05:57:00.683Z,0.10
2019-02-24T05:59:29.665Z,0.10
2019-02-24T06:01:58.587Z,0.10
2019-02-24T06:04:27.569Z,0.10
2019-02-24T06:06:56.568Z,0.10
2019-02-24T06:09:25.551Z,0.10
2019-02-24T06:11:54.811Z,0.10
2019-02-24T06:14:23.803Z,0.20
2019-02-24T06:16:52.881Z,0.40
2019-02-24T06:19:22.082Z,0.60
2019-02-24T06:21:51.149Z,0.70
2019-02-24T06:24:20.113Z,0.70
2019-02-24T06:26:49.548Z,0.80
2019-02-24T06:29:18.507Z,0.90
2019-02-24T06:31:48.659Z,0.90
2019-02-24T06:34:17.759Z,0.90
2019-02-24T06:36:46.974Z,0.70
2019-02-24T06:39:16.000Z,0.70
2019-02-24T06:41:45.007Z,0.80
2019-02-24T06:44:20.249Z,0.80
2019-02-24T06:46:49.375Z,0.70
2019-02-24T06:49:18.593Z,0.80
2019-02-24T06:51:47.668Z,0.90
2019-02-24T06:54:16.699Z,0.90
2019-02-24T06:56:45.845Z,0.70
2019-02-24T06:59:15.315Z,0.60
2019-02-24T07:01:44.348Z,0.70
2019-02-24T07:04:13.545Z,0.80
2019-02-24T07:06:42.843Z,0.90
2019-02-24T07:09:12.497Z,0.80
2019-02-24T07:11:42.758Z,0.90
2019-02-24T07:14:11.848Z,1.00
2019-02-24T07:16:40.859Z,1.00
2019-02-24T07:19:10.006Z,1.10
2019-02-24T07:21:39.634Z,1.10
2019-02-24T07:24:08.633Z,1.20
2019-02-24T07:26:37.759Z,1.30
2019-02-24T07:29:06.949Z,1.30
2019-02-24T07:31:36.730Z,1.40
2019-02-24T07:34:06.007Z,1.50
2019-02-24T07:36:35.677Z,1.50
2019-02-24T07:39:05.531Z,1.70
2019-02-24T07:41:36.228Z,1.80
2019-02-24T07:44:06.614Z,1.90
2019-02-24T07:46:36.144Z,2.00
2019-02-24T07:49:05.174Z,1.90
2019-02-24T07:51:34.276Z,1.70
2019-02-24T07:54:04.457Z,1.60
2019-02-24T07:56:33.847Z,1.60
2019-02-24T07:59:03.645Z,1.60
2019-02-24T08:01:33.362Z,1.70
2019-02-24T08:04:02.419Z,1.80
2019-02-24T08:06:32.311Z,1.80
2019-02-24T08:09:01.396Z,1.90
2019-02-24T08:11:31.102Z,2.10
2019-02-24T08:14:00.384Z,2.10
2019-02-24T08:16:29.481Z,2.10
2019-02-24T08:18:58.767Z,2.20
2019-02-24T08:21:28.001Z,2.30
2019-02-24T08:23:57.617Z,2.40
2019-02-24T08:26:27.143Z,2.60
2019-02-24T08:28:56.176Z,2.60
2019-02-24T08:31:25.299Z,2.70
2019-02-24T08:33:55.665Z,2.70
2019-02-24T08:36:24.968Z,2.80
2019-02-24T08:38:54.307Z,2.70
2019-02-24T08:41:23.476Z,2.90
2019-02-24T08:43:52.701Z,3.00
2019-02-24T08:46:21.921Z,3.20
2019-02-24T08:48:50.967Z,4.20
2019-02-24T08:51:20.055Z,5.70
2019-02-24T08:53:50.065Z,7.50
2019-02-24T08:56:19.187Z,9.20
2019-02-24T08:58:48.604Z,9.50
2019-02-24T09:01:17.782Z,8.90
2019-02-24T09:03:48.057Z,9.90
2019-02-24T12:11:19.116Z,17.00
2019-02-24T12:13:48.093Z,17.20
2019-02-24T12:16:17.146Z,16.80
2019-02-24T12:18:46.330Z,17.00
2019-02-24T12:21:15.428Z,17.30
2019-02-24T12:23:44.510Z,17.20
2019-02-24T12:26:13.798Z,17.30
2019-02-24T12:28:42.903Z,17.10
2019-02-24T12:31:11.935Z,17.30
2019-02-24T12:33:40.961Z,17.60
2019-02-24T12:36:09.986Z,17.40
2019-02-24T12:38:39.121Z,17.60
2019-02-24T12:41:08.093Z,17.80
2019-02-24T12:43:37.104Z,17.80
2019-02-24T12:46:06.074Z,16.80
2019-02-24T12:48:35.076Z,16.60
2019-02-24T12:51:04.132Z,16.30
2019-02-24T12:53:33.208Z,16.40
2019-02-24T12:56:02.584Z,17.70
2019-02-24T12:58:31.834Z,18.50
2019-02-24T13:01:00.848Z,18.80
2019-02-24T13:03:29.896Z,17.40
2019-02-24T13:05:58.940Z,17.50
2019-02-24T13:08:27.908Z,17.70
2019-02-24T13:10:56.895Z,18.30
2019-02-24T13:13:26.045Z,18.80
2019-02-24T13:15:55.061Z,19.00
2019-02-24T13:18:24.094Z,18.70
2019-02-24T13:20:53.031Z,18.60
2019-02-24T13:23:21.983Z,17.50
2019-02-24T13:25:50.899Z,17.10
2019-02-24T13:28:19.969Z,16.80
2019-02-24T13:30:49.058Z,16.20
2019-02-24T13:33:18.148Z,16.10
2019-02-24T13:35:47.304Z,16.80
2019-02-24T13:38:16.372Z,16.80
2019-02-24T13:40:45.414Z,16.40
2019-02-24T13:43:14.478Z,16.80
2019-02-24T13:45:43.764Z,16.80
2019-02-24T13:48:12.782Z,17.10
2019-02-24T13:50:42.036Z,17.00
2019-02-24T13:53:11.171Z,16.70
2019-02-24T13:55:40.326Z,15.90
2019-02-24T13:58:09.728Z,15.80
2019-02-24T14:00:38.775Z,15.80
2019-02-24T14:03:07.806Z,16.00
2019-02-24T14:05:36.963Z,16.00
2019-02-24T14:08:06.039Z,15.90
2019-02-24T14:10:35.014Z,15.40
2019-02-24T14:13:05.353Z,15.40
2019-02-24T14:15:34.587Z,15.50
2019-02-24T14:18:03.720Z,15.50
2019-02-24T14:20:32.696Z,15.50
2019-02-24T14:23:01.677Z,15.50
2019-02-24T14:25:30.846Z,15.40
2019-02-24T14:27:59.909Z,15.80
2019-02-24T14:30:28.879Z,15.00
2019-02-24T14:32:57.824Z,15.00
2019-02-24T14:35:26.828Z,14.80
2019-02-24T14:37:55.789Z,14.80
2019-02-24T14:40:24.754Z,14.30
2019-02-24T14:42:53.800Z,14.00
2019-02-24T14:45:22.865Z,13.90
2019-02-24T14:47:51.919Z,13.50
2019-02-24T14:50:20.943Z,13.30
2019-02-24T14:52:50.036Z,13.30
2019-02-24T14:55:19.037Z,13.10
2019-02-24T14:57:48.070Z,13.10
2019-02-24T15:00:17.171Z,13.10
2019-02-24T15:02:46.388Z,13.00
2019-02-24T15:05:16.741Z,12.90
2019-02-24T15:07:44.297Z,12.80
2019-02-24T15:10:14.467Z,12.70
2019-02-24T15:12:43.575Z,12.80
2019-02-24T15:15:14.740Z,12.70
2019-02-24T15:17:43.751Z,12.60
2019-02-24T15:20:15.982Z,12.50
2019-02-24T15:22:45.016Z,12.50
2019-02-24T15:25:15.259Z,12.50
2019-02-24T15:27:44.504Z,12.40
2019-02-24T15:30:17.319Z,12.40
2019-02-24T15:32:51.605Z,12.30
2019-02-24T15:35:15.306Z,12.30
2019-02-24T15:37:44.601Z,12.20
2019-02-24T15:40:13.766Z,12.10
2019-02-24T15:42:42.891Z,12.00
2019-02-24T15:45:12.197Z,12.00
2019-02-24T15:47:41.257Z,11.90
2019-02-24T15:50:10.570Z,11.90
2019-02-24T15:52:39.916Z,11.80
2019-02-24T15:55:09.121Z,11.70
2019-02-24T15:57:38.195Z,11.70
2019-02-24T16:00:09.375Z,11.60
2019-02-24T16:02:38.696Z,11.50
2019-02-24T16:05:08.439Z,11.40
2019-02-24T16:07:37.516Z,11.40
2019-02-24T16:10:07.978Z,11.30
2019-02-24T16:12:37.239Z,11.30
2019-02-24T16:15:08.649Z,11.30
2019-02-24T16:17:37.874Z,11.20
2019-02-24T16:20:11.000Z,11.10
2019-02-24T16:22:40.145Z,11.10
2019-02-24T16:25:09.394Z,11.00
2019-02-24T16:27:38.397Z,10.90
2019-02-24T16:30:09.314Z,10.70
2019-02-24T16:32:38.467Z,10.70
2019-02-24T16:35:09.833Z,10.60
2019-02-24T16:37:39.157Z,10.50
2019-02-24T16:40:11.279Z,10.60
2019-02-24T16:42:40.302Z,10.60
2019-02-24T16:45:10.794Z,10.60
2019-02-24T16:47:40.048Z,10.50
2019-02-24T16:50:10.927Z,10.50
2019-02-24T16:52:39.973Z,10.40
2019-02-24T16:55:10.239Z,10.30
2019-02-24T16:57:39.640Z,10.20
2019-02-24T17:00:11.515Z,10.20
2019-02-24T17:02:40.567Z,10.10
2019-02-24T17:05:09.607Z,10.10
2019-02-24T17:07:38.598Z,9.90
2019-02-24T17:10:08.300Z,9.80
2019-02-24T17:12:37.493Z,9.80
2019-02-24T17:15:09.096Z,9.70
2019-02-24T17:17:38.295Z,9.60
2019-02-24T17:20:09.941Z,9.50
2019-02-24T17:22:39.204Z,9.40
2019-02-24T17:25:08.344Z,9.30
2019-02-24T17:27:37.447Z,9.20
2019-02-24T17:30:07.614Z,9.10
2019-02-24T17:32:36.725Z,9.10
2019-02-24T17:35:05.874Z,9.20
2019-02-24T17:37:34.922Z,9.10
2019-02-24T17:40:04.459Z,9.10
2019-02-24T17:42:33.675Z,9.10
2019-02-24T17:45:02.695Z,9.10
2019-02-24T17:47:31.738Z,9.00
2019-02-24T17:50:00.799Z,8.80
2019-02-24T17:52:29.883Z,8.80
2019-02-24T17:54:58.997Z,8.70
2019-02-24T17:57:28.591Z,8.70
2019-02-24T17:59:57.595Z,8.60
2019-02-24T18:02:26.882Z,8.60
2019-02-24T18:04:55.989Z,8.50
2019-02-24T18:07:24.964Z,8.50
2019-02-24T18:09:54.289Z,8.50
2019-02-24T18:12:23.332Z,8.40
2019-02-24T18:14:52.834Z,8.50
2019-02-24T18:17:21.896Z,8.40
2019-02-24T18:19:51.095Z,8.40
2019-02-24T18:22:20.264Z,8.30
2019-02-24T18:24:49.459Z,8.30
2019-02-24T18:27:18.586Z,8.40
2019-02-24T18:29:47.585Z,8.40
2019-02-24T18:32:16.824Z,8.30
2019-02-24T18:34:45.835Z,8.10
2019-02-24T18:37:14.981Z,8.10
2019-02-24T18:39:44.010Z,8.00
2019-02-24T18:42:13.102Z,8.00
2019-02-24T18:44:42.478Z,8.00
2019-02-24T18:47:11.681Z,7.90
2019-02-24T18:49:40.703Z,7.80
2019-02-24T18:52:09.866Z,7.80
2019-02-24T18:54:39.116Z,7.80
2019-02-24T18:57:08.386Z,7.80
2019-02-24T18:59:37.465Z,7.80
2019-02-24T19:02:06.434Z,7.80
2019-02-24T19:04:35.765Z,7.70
2019-02-24T19:07:10.218Z,7.70
2019-02-24T19:09:39.316Z,7.60
2019-02-24T19:12:08.475Z,7.60
2019-02-24T19:14:37.479Z,7.60
2019-02-24T19:17:06.681Z,7.50
2019-02-24T19:19:36.788Z,7.50
2019-02-24T19:22:07.257Z,7.50
2019-02-24T19:24:34.946Z,7.50
2019-02-24T19:27:04.024Z,7.50
2019-02-24T19:29:33.098Z,7.50
2019-02-24T19:32:02.108Z,7.60
2019-02-24T19:34:31.128Z,7.70
2019-02-24T19:37:00.190Z,7.70
2019-02-24T19:39:29.932Z,7.60
2019-02-24T19:41:59.104Z,7.70
2019-02-24T19:44:28.174Z,7.70
2019-02-24T19:46:57.123Z,7.70
2019-02-24T19:49:32.782Z,7.80
2019-02-24T19:52:01.802Z,7.80
2019-02-24T19:54:30.802Z,7.70
2019-02-24T19:56:59.939Z,7.50
2019-02-24T19:59:28.915Z,7.40
2019-02-24T20:01:57.862Z,7.40
2019-02-24T20:04:26.839Z,7.30
2019-02-24T20:06:55.851Z,7.20
2019-02-24T20:09:24.913Z,7.20
2019-02-24T20:11:54.501Z,7.10
2019-02-24T20:14:23.620Z,7.10
2019-02-24T20:16:52.617Z,7.20
2019-02-24T20:19:21.659Z,7.20
2019-02-24T20:21:50.702Z,7.40
2019-02-24T20:24:19.768Z,7.50
2019-02-24T20:26:48.784Z,7.40
2019-02-24T20:29:17.788Z,7.30
2019-02-24T20:31:47.024Z,7.20
2019-02-24T20:34:25.022Z,7.00
2019-02-24T20:36:45.655Z,6.90
2019-02-24T20:39:17.128Z,6.80
2019-02-24T20:41:47.300Z,6.80
2019-02-24T20:44:16.464Z,6.90
2019-02-24T20:46:46.016Z,6.90
2019-02-24T20:49:15.373Z,6.90
2019-02-24T20:51:45.166Z,6.80
2019-02-24T20:54:14.274Z,6.90
2019-02-24T20:56:43.357Z,6.80
2019-02-24T20:59:12.482Z,6.80
2019-02-24T21:01:41.642Z,6.70
2019-02-24T21:04:11.366Z,6.70
2019-02-24T21:06:41.447Z,6.60
2019-02-24T21:09:14.983Z,6.60
2019-02-24T21:11:46.293Z,6.50
2019-02-24T21:14:15.846Z,6.60
2019-02-24T21:16:46.775Z,6.50
2019-02-24T21:19:17.180Z,6.60
2019-02-24T21:21:48.084Z,6.50
2019-02-24T21:24:18.365Z,6.50
2019-02-24T21:26:48.874Z,6.40
2019-02-24T21:29:20.389Z,6.40
2019-02-24T21:31:52.016Z,6.30
2019-02-24T21:34:23.459Z,6.20
2019-02-24T21:36:52.558Z,6.20
2019-02-24T21:39:21.593Z,6.20
2019-02-24T21:41:51.306Z,6.30
2019-02-24T21:44:20.502Z,6.30
2019-02-24T21:46:49.702Z,6.30
2019-02-24T21:49:18.826Z,6.40
2019-02-24T21:51:47.859Z,6.40
2019-02-24T21:54:16.868Z,6.30
2019-02-24T21:56:45.896Z,6.20
2019-02-24T21:59:15.312Z,6.10
2019-02-24T22:01:45.047Z,6.00
2019-02-24T22:04:14.164Z,5.90
2019-02-24T22:06:43.252Z,5.80
2019-02-24T22:09:12.537Z,5.90
2019-02-24T22:11:41.563Z,5.90
2019-02-24T22:14:17.424Z,6.00
2019-02-24T22:16:46.400Z,6.00
2019-02-24T22:19:16.212Z,6.00
2019-02-24T22:21:48.301Z,6.00
2019-02-24T22:24:17.362Z,5.90
2019-02-24T22:26:46.502Z,5.80
2019-02-24T22:29:15.463Z,5.70
2019-02-24T22:31:44.383Z,5.70
2019-02-24T22:34:13.351Z,5.60
2019-02-24T22:36:42.313Z,5.70
2019-02-24T22:39:11.352Z,5.60
2019-02-24T22:41:40.404Z,5.50
2019-02-24T22:44:09.338Z,5.50
2019-02-24T22:46:38.273Z,5.40
2019-02-24T22:49:07.267Z,5.40
2019-02-24T22:51:36.294Z,5.40
2019-02-24T22:54:05.486Z,5.40
2019-02-24T22:56:34.471Z,5.50
2019-02-24T22:59:03.516Z,5.60
2019-02-24T23:01:36.365Z,5.70
2019-02-24T23:04:05.445Z,5.90
2019-02-24T23:06:34.457Z,5.90
2019-02-24T23:09:03.690Z,6.00
2019-02-24T23:11:32.604Z,6.00
2019-02-24T23:14:01.710Z,6.20
2019-02-24T23:16:30.685Z,6.10
2019-02-24T23:19:02.366Z,6.00
2019-02-24T23:21:31.368Z,5.70
2019-02-24T23:24:00.288Z,5.60
2019-02-24T23:26:29.234Z,5.50
2019-02-24T23:28:58.410Z,5.60
2019-02-24T23:31:27.319Z,5.60
2019-02-24T23:33:56.232Z,5.60
2019-02-24T23:36:25.545Z,5.50
2019-02-24T23:38:54.812Z,5.40
2019-02-24T23:41:23.846Z,5.50
2019-02-24T23:43:52.908Z,5.40
2019-02-24T23:46:21.847Z,5.30
2019-02-24T23:48:50.836Z,5.40
2019-02-24T23:51:19.848Z,5.30
2019-02-24T23:53:49.007Z,5.20
2019-02-24T23:56:17.951Z,5.30
2019-02-24T23:58:46.966Z,5.40
